Time;durP1;ratioP1;P1;durP2;ratioP2;P2;SDS_P1;SDS_P2;PMS_P1;PMS_P2;Temp;Humidity;BMP_temperature;BMP_pressure;BME280_temperature;BME280_humidity;BME280_pressure;Samples;Min_cycle;Max_cycle;Signal;HPM_P1;HPM_P2
2021/07/17 00:01:54;;;;;;;22.40;11.33;;;;;;;21.39;72.58;101747.31;5060357;28;20223;-68
2021/07/17 00:04:19;;;;;;;20.03;11.17;;;;;;;21.53;71.82;101747.97;5060540;28;20189;-68
2021/07/17 00:06:44;;;;;;;27.77;11.50;;;;;;;21.38;72.26;101742.94;5060222;28;20514;-69
2021/07/17 00:09:10;;;;;;;22.10;12.07;;;;;;;21.50;71.92;101750.66;5059904;28;20169;-70
2021/07/17 00:11:35;;;;;;;25.20;10.63;;;;;;;21.29;72.77;101751.06;5060237;28;20181;-69
2021/07/17 00:14:01;;;;;;;25.20;11.90;;;;;;;21.43;72.58;101753.44;5059995;28;20169;-69
2021/07/17 00:16:26;;;;;;;19.80;11.07;;;;;;;21.35;72.45;101746.53;5059724;28;20212;-70
2021/07/17 00:18:53;;;;;;;21.67;13.10;;;;;;;21.23;73.05;101761.78;5060231;28;20171;-69
2021/07/17 00:21:18;;;;;;;26.73;12.43;;;;;;;21.59;71.89;101751.41;5059845;28;20594;-69
2021/07/17 00:23:44;;;;;;;21.20;11.60;;;;;;;21.45;72.15;101749.88;5059530;28;20468;-68
2021/07/17 00:26:09;;;;;;;24.00;12.00;;;;;;;21.40;72.25;101749.09;5059652;28;20209;-69
2021/07/17 00:28:34;;;;;;;21.33;11.83;;;;;;;21.49;71.91;101748.91;5059855;28;20183;-69
2021/07/17 00:30:59;;;;;;;20.10;11.27;;;;;;;21.21;73.03;101743.25;5059657;28;20180;-67
2021/07/17 00:33:25;;;;;;;16.20;11.10;;;;;;;21.29;72.50;101746.63;5059848;28;20208;-68
2021/07/17 00:35:50;;;;;;;22.80;10.73;;;;;;;21.56;71.98;101749.69;5059631;28;20352;-70
2021/07/17 00:38:16;;;;;;;22.93;11.20;;;;;;;21.07;72.98;101754.13;5059600;28;20169;-70
2021/07/17 00:40:41;;;;;;;20.93;10.70;;;;;;;21.37;72.37;101752.66;5059916;28;20196;-69
2021/07/17 00:43:06;;;;;;;19.37;10.13;;;;;;;21.32;72.06;101756.31;5059084;28;20177;-69
2021/07/17 00:45:32;;;;;;;19.30;10.20;;;;;;;21.32;72.21;101743.06;5059338;28;20228;-69
2021/07/17 00:47:57;;;;;;;17.57;9.40;;;;;;;21.12;73.07;101752.28;5059713;28;20200;-69
2021/07/17 00:50:23;;;;;;;19.47;11.10;;;;;;;21.33;72.15;101753.63;5059551;28;20501;-69
2021/07/17 00:52:48;;;;;;;28.57;12.57;;;;;;;21.14;73.02;101761.06;5059158;28;20166;-69
2021/07/17 00:55:14;;;;;;;22.80;10.57;;;;;;;21.27;72.48;101752.88;5059370;28;20223;-68
2021/07/17 00:57:41;;;;;;;21.07;11.00;;;;;;;21.34;72.20;101759.81;5059226;28;20170;-69
2021/07/17 01:00:15;;;;;;;19.50;10.60;;;;;;;21.40;71.96;101756.19;5058897;28;20589;-69
2021/07/17 01:02:46;;;;;;;20.50;11.17;;;;;;;21.31;72.34;101759.84;5059580;28;20658;-68
2021/07/17 01:05:13;;;;;;;20.10;11.53;;;;;;;21.40;71.97;101756.19;5059146;28;20472;-69
2021/07/17 01:07:38;;;;;;;20.90;11.03;;;;;;;21.31;72.06;101754.56;5058910;28;20408;-70
2021/07/17 01:10:06;;;;;;;19.37;11.20;;;;;;;21.29;72.18;101767.00;5058199;28;20469;-69
2021/07/17 01:12:32;;;;;;;21.93;10.13;;;;;;;21.06;73.17;101765.63;5058137;28;20173;-71
2021/07/17 01:14:57;;;;;;;18.30;10.80;;;;;;;21.39;72.23;101760.59;5058990;28;20471;-68
2021/07/17 01:17:23;;;;;;;20.10;9.70;;;;;;;21.04;73.01;101762.16;5058468;28;20188;-67
2021/07/17 01:19:48;;;;;;;17.70;10.73;;;;;;;20.92;73.94;101759.69;5059097;28;20169;-67
2021/07/17 01:22:13;;;;;;;20.60;11.17;;;;;;;20.98;73.27;101765.75;5058680;28;20188;-68
2021/07/17 01:24:39;;;;;;;23.97;11.30;;;;;;;21.14;73.15;101762.84;5058613;28;20230;-67
2021/07/17 01:27:04;;;;;;;16.17;11.50;;;;;;;21.05;73.11;101760.34;5058076;28;20426;-68
2021/07/17 01:29:29;;;;;;;15.93;10.80;;;;;;;20.90;74.12;101769.44;5058317;28;20211;-69
2021/07/17 01:31:55;;;;;;;18.10;10.77;;;;;;;20.97;73.80;101768.44;5058778;28;20272;-69
2021/07/17 01:34:20;;;;;;;23.37;12.10;;;;;;;20.85;74.29;101758.91;5058549;28;20493;-69
2021/07/17 01:36:45;;;;;;;22.23;10.90;;;;;;;;;;5059136;28;20532;-69
2021/07/17 01:39:11;;;;;;;20.67;11.13;;;;;;;21.14;73.06;101763.72;5058585;28;20175;-69
2021/07/17 01:41:37;;;;;;;22.10;11.73;;;;;;;20.97;73.57;101760.47;5058465;28;20185;-69
2021/07/17 01:44:02;;;;;;;22.93;11.57;;;;;;;21.08;73.50;101760.28;5058776;28;20200;-69
2021/07/17 01:46:28;;;;;;;18.03;11.60;;;;;;;21.11;73.27;101757.59;5058421;28;20260;-68
2021/07/17 01:48:56;;;;;;;21.63;11.87;;;;;;;20.82;74.22;101762.50;5058360;28;20256;-68
2021/07/17 01:51:22;;;;;;;21.50;10.90;;;;;;;21.04;73.54;101764.78;5058801;28;20204;-69
2021/07/17 01:53:48;;;;;;;29.77;12.70;;;;;;;21.35;72.03;101758.91;5058167;28;20451;-68
2021/07/17 01:56:16;;;;;;;20.90;12.07;;;;;;;21.05;73.55;101763.88;5058184;28;20185;-68
2021/07/17 01:58:42;;;;;;;25.80;12.73;;;;;;;20.99;73.54;101764.00;5058410;28;20771;-69
2021/07/17 02:01:07;;;;;;;18.50;10.80;;;;;;;21.15;72.90;101760.16;5058145;28;20415;-68
2021/07/17 02:03:33;;;;;;;21.57;11.27;;;;;;;21.06;73.58;101754.16;5057997;28;20166;-68
2021/07/17 02:05:59;;;;;;;16.57;10.23;;;;;;;;;;5058503;28;20539;-68
2021/07/17 02:08:24;;;;;;;22.60;10.97;;;;;;;21.38;72.15;101766.81;5058090;28;20177;-68
2021/07/17 02:10:50;;;;;;;17.60;9.70;;;;;;;21.16;72.44;101761.91;5057996;28;20822;-69
2021/07/17 02:13:16;;;;;;;18.80;11.17;;;;;;;20.79;74.15;101759.91;5058205;28;20181;-69
2021/07/17 02:15:45;;;;;;;19.47;11.00;;;;;;;21.09;73.33;101760.25;5058021;28;20215;-67
2021/07/17 02:18:15;;;;;;;20.80;10.17;;;;;;;21.09;73.27;101754.94;5058019;28;20176;-68
2021/07/17 02:20:41;;;;;;;15.73;10.90;;;;;;;21.12;73.22;101754.91;5058274;28;20806;-68
2021/07/17 02:23:07;;;;;;;17.30;10.90;;;;;;;20.82;74.49;101745.72;5057730;28;20412;-68
2021/07/17 02:25:33;;;;;;;18.33;11.00;;;;;;;20.84;73.96;101749.22;5057722;28;20476;-68
2021/07/17 02:27:59;;;;;;;21.10;12.00;;;;;;;21.05;73.42;101752.41;5058400;28;20665;-68
2021/07/17 02:30:24;;;;;;;16.90;10.77;;;;;;;21.23;72.44;101751.19;5057975;28;20181;-68
2021/07/17 02:32:49;;;;;;;23.50;11.63;;;;;;;21.29;72.13;101751.94;5057789;28;20193;-67
2021/07/17 02:35:15;;;;;;;19.67;11.33;;;;;;;21.01;73.27;101749.81;5058294;28;20192;-67
2021/07/17 02:37:40;;;;;;;17.47;11.10;;;;;;;21.05;73.27;101747.97;5058006;28;20516;-67
2021/07/17 02:40:07;;;;;;;17.60;11.90;;;;;;;21.23;72.36;101751.19;5058204;28;20187;-67
2021/07/17 02:42:33;;;;;;;31.57;11.40;;;;;;;21.19;72.37;101747.72;5057943;28;20193;-69
2021/07/17 02:44:59;;;;;;;17.07;11.57;;;;;;;21.13;72.10;101756.66;5056817;28;20801;-68
2021/07/17 02:47:24;;;;;;;17.10;11.90;;;;;;;21.34;71.53;101754.53;5057681;28;20418;-68
2021/07/17 02:49:49;;;;;;;19.50;11.50;;;;;;;21.12;72.38;101754.03;5058151;28;20170;-67
2021/07/17 02:52:14;;;;;;;19.53;11.60;;;;;;;21.11;72.83;101758.47;5057679;28;20174;-68
2021/07/17 02:54:40;;;;;;;15.13;11.07;;;;;;;21.10;72.16;101756.72;5057672;28;20174;-68
2021/07/17 02:57:05;;;;;;;18.40;11.50;;;;;;;21.40;71.41;101750.88;5057958;28;20178;-67
2021/07/17 02:59:30;;;;;;;15.87;11.60;;;;;;;21.18;72.28;101757.44;5057545;28;20178;-68
2021/07/17 03:01:56;;;;;;;16.80;11.70;;;;;;;20.92;73.52;101760.56;5057491;28;20174;-68
2021/07/17 03:04:21;;;;;;;17.63;12.07;;;;;;;21.20;72.43;101760.97;5057582;28;20469;-68
2021/07/17 03:06:46;;;;;;;12.73;10.87;;;;;;;21.04;72.87;101764.78;5057419;28;20185;-69
2021/07/17 03:09:12;;;;;;;14.70;11.20;;;;;;;21.05;72.86;101768.31;5057392;28;20215;-69
2021/07/17 03:11:37;;;;;;;18.53;11.53;;;;;;;20.92;73.23;101767.63;5058890;28;20508;-69
2021/07/17 03:14:03;;;;;;;19.00;11.90;;;;;;;21.09;72.62;101768.22;5061142;28;20205;-69
2021/07/17 03:16:30;;;;;;;18.03;11.73;;;;;;;20.54;74.98;101767.34;5061201;28;20170;-69
2021/07/17 03:18:55;;;;;;;16.80;11.67;;;;;;;20.91;73.32;101764.13;5061598;28;20260;-69
2021/07/17 03:21:21;;;;;;;15.37;11.30;;;;;;;21.19;71.87;101767.16;5061094;28;20868;-68
2021/07/17 03:23:46;;;;;;;16.80;11.27;;;;;;;21.29;71.88;101769.63;5060800;28;20586;-68
2021/07/17 03:26:12;;;;;;;14.17;11.10;;;;;;;20.99;73.04;101766.66;5061230;28;20539;-68
2021/07/17 03:28:37;;;;;;;17.73;11.80;;;;;;;21.07;72.68;101772.69;5060982;28;20217;-67
2021/07/17 03:31:02;;;;;;;17.10;12.40;;;;;;;20.86;73.41;101780.13;5060805;28;20199;-68
2021/07/17 03:33:29;;;;;;;19.93;13.23;;;;;;;21.32;71.73;101772.22;5061268;28;20169;-68
2021/07/17 03:35:54;;;;;;;16.10;10.70;;;;;;;20.93;72.84;101774.69;5060840;28;20181;-69
2021/07/17 03:38:20;;;;;;;12.40;11.10;;;;;;;20.94;72.83;101771.16;5061001;28;20786;-68
2021/07/17 03:40:45;;;;;;;13.60;11.00;;;;;;;21.12;72.12;101772.59;5061235;28;20183;-67
2021/07/17 03:43:11;;;;;;;14.50;11.07;;;;;;;20.68;73.52;101783.91;5060526;28;20181;-67
2021/07/17 03:45:36;;;;;;;13.23;11.40;;;;;;;21.10;71.65;101775.28;5060622;28;20515;-67
2021/07/17 03:48:01;;;;;;;13.77;11.50;;;;;;;21.25;71.24;101771.47;5061096;28;20256;-68
2021/07/17 03:50:26;;;;;;;18.57;10.90;;;;;;;20.86;72.65;101776.56;5060697;28;20200;-69
2021/07/17 03:52:52;;;;;;;18.83;11.50;;;;;;;20.86;71.85;101774.81;5060425;28;20227;-67
2021/07/17 03:55:17;;;;;;;13.97;10.63;;;;;;;21.03;71.37;101774.50;5060194;28;20211;-69
2021/07/17 03:57:42;;;;;;;14.13;11.43;;;;;;;21.69;68.92;101776.88;5060444;28;20177;-69
2021/07/17 04:00:08;;;;;;;11.87;9.60;;;;;;;22.49;65.84;101779.59;5060234;28;20184;-69
2021/07/17 04:02:40;;;;;;;12.03;9.33;;;;;;;22.85;64.19;101780.47;5060530;28;20219;-69
2021/07/17 04:05:07;;;;;;;11.40;8.93;;;;;;;23.24;61.61;101784.81;5060147;28;20201;-69
2021/07/17 04:07:33;;;;;;;10.33;8.20;;;;;;;23.07;62.04;101784.34;5060058;28;20414;-68
2021/07/17 04:09:58;;;;;;;12.90;7.70;;;;;;;23.67;59.80;101780.09;5060487;28;20452;-69
2021/07/17 04:12:25;;;;;;;9.07;8.20;;;;;;;23.77;58.74;101773.56;5059995;28;20177;-67
2021/07/17 04:14:50;;;;;;;8.47;7.20;;;;;;;23.80;57.56;101773.50;5060129;28;20174;-68
2021/07/17 04:17:15;;;;;;;11.60;7.10;;;;;;;23.20;58.74;101788.47;5060479;28;20730;-67
2021/07/17 04:19:41;;;;;;;7.50;6.80;;;;;;;23.67;56.63;101777.44;5060093;28;20558;-69
2021/07/17 04:22:06;;;;;;;9.27;6.80;;;;;;;24.45;54.65;101775.97;5058672;28;20174;-67
2021/07/17 04:24:31;;;;;;;10.47;6.63;;;;;;;24.44;53.93;101780.44;5059615;28;20271;-67
2021/07/17 04:26:57;;;;;;;7.30;5.97;;;;;;;23.95;54.16;101787.28;5059924;28;20173;-68
2021/07/17 04:29:22;;;;;;;7.47;6.77;;;;;;;24.33;53.45;101779.94;5059980;28;20185;-69
2021/07/17 04:31:47;;;;;;;7.97;5.90;;;;;;;23.79;54.06;101789.53;5059699;28;20184;-69
2021/07/17 04:34:12;;;;;;;6.20;5.63;;;;;;;24.13;52.62;101781.41;5059595;28;20606;-69
2021/07/17 04:36:38;;;;;;;7.90;5.77;;;;;;;24.40;51.38;101786.81;5060189;28;20173;-69
2021/07/17 04:39:03;;;;;;;6.47;5.87;;;;;;;24.50;51.38;101785.56;5059677;28;20447;-69
2021/07/17 04:41:29;;;;;;;6.17;5.67;;;;;;;24.66;49.99;101780.66;5059794;28;20157;-68
2021/07/17 04:43:54;;;;;;;5.73;5.10;;;;;;;24.25;50.85;101792.59;5059919;28;20173;-68
2021/07/17 04:46:19;;;;;;;8.60;5.90;;;;;;;24.59;49.54;101789.75;5059329;28;20563;-69
2021/07/17 04:48:45;;;;;;;7.90;5.87;;;;;;;25.04;48.20;101789.16;5059428;28;20177;-69
2021/07/17 04:51:10;;;;;;;5.83;5.03;;;;;;;25.07;47.49;101785.50;5059994;28;20174;-70
2021/07/17 04:53:35;;;;;;;4.97;4.50;;;;;;;25.29;46.63;101792.75;5059293;28;20428;-69
2021/07/17 04:56:00;;;;;;;5.23;4.57;;;;;;;24.83;47.29;101792.53;5059460;28;20165;-69
2021/07/17 04:58:26;;;;;;;4.90;4.40;;;;;;;25.28;45.99;101783.03;5059748;28;20172;-69
2021/07/17 05:00:51;;;;;;;4.90;4.50;;;;;;;25.61;45.43;101782.75;5059138;28;20177;-69
2021/07/17 05:03:16;;;;;;;5.17;4.60;;;;;;;25.94;43.90;101787.75;5058838;28;20184;-69
2021/07/17 05:05:42;;;;;;;7.30;4.93;;;;;;;25.71;44.10;101790.38;5059465;28;20197;-69
2021/07/17 05:08:07;;;;;;;4.70;4.30;;;;;;;26.15;43.21;101792.28;5059197;28;20452;-69
2021/07/17 05:10:32;;;;;;;7.17;5.20;;;;;;;25.85;43.04;101795.19;5058969;28;20271;-70
2021/07/17 05:12:58;;;;;;;5.33;4.80;;;;;;;26.53;41.81;101795.25;5059385;28;20169;-67
2021/07/17 05:15:23;;;;;;;6.00;5.40;;;;;;;25.90;42.57;101795.03;5059027;28;20216;-67
2021/07/17 05:17:49;;;;;;;5.57;3.90;;;;;;;25.93;42.71;101791.38;5058999;28;20169;-67
2021/07/17 05:20:14;;;;;;;5.80;5.30;;;;;;;26.60;41.58;101793.16;5059205;28;20589;-67
2021/07/17 05:22:40;;;;;;;5.10;4.40;;;;;;;27.38;39.19;101793.50;5058552;28;20256;-67
2021/07/17 05:25:06;;;;;;;9.20;4.13;;;;;;;26.66;40.55;101794.75;5058568;28;20559;-67
2021/07/17 05:27:31;;;;;;;9.33;4.07;;;;;;;27.93;38.57;101797.28;5059291;28;20434;-67
2021/07/17 05:29:56;;;;;;;8.97;4.47;;;;;;;27.28;38.96;101802.84;5057947;28;20467;-67
2021/07/17 05:32:22;;;;;;;8.63;4.40;;;;;;;28.19;37.44;101813.03;5058729;28;20178;-68
2021/07/17 05:34:47;;;;;;;6.30;3.60;;;;;;;27.64;38.10;101805.72;5058552;28;20252;-67
2021/07/17 05:37:13;;;;;;;5.00;3.90;;;;;;;27.64;38.47;101811.06;5058568;28;20177;-68
2021/07/17 05:39:38;;;;;;;9.10;3.80;;;;;;;27.24;39.26;101810.16;5058517;28;20223;-68
2021/07/17 05:42:05;;;;;;;5.47;4.00;;;;;;;27.25;38.97;101816.38;5058162;28;20204;-68
2021/07/17 05:44:30;;;;;;;8.03;4.27;;;;;;;27.71;38.20;101814.34;5058120;28;20181;-67
2021/07/17 05:46:56;;;;;;;10.23;6.10;;;;;;;28.66;36.94;101814.38;5058199;28;20537;-68
2021/07/17 05:49:21;;;;;;;4.23;3.83;;;;;;;28.43;36.86;101815.50;5058668;28;20535;-67
2021/07/17 05:51:46;;;;;;;5.73;4.50;;;;;;;28.94;36.49;101822.84;5058134;28;20547;-67
2021/07/17 05:54:12;;;;;;;5.20;4.07;;;;;;;29.17;36.35;101829.72;5057967;28;20169;-68
2021/07/17 05:56:38;;;;;;;5.23;4.47;;;;;;;29.85;35.03;101826.16;5058644;28;20217;-68
2021/07/17 05:59:03;;;;;;;4.13;3.60;;;;;;;29.25;35.25;101822.16;5058040;28;20817;-68
2021/07/17 06:01:28;;;;;;;6.80;4.27;;;;;;;29.33;35.36;101830.69;5058371;28;20197;-68
2021/07/17 06:03:54;;;;;;;7.30;4.40;;;;;;;29.84;34.78;101833.38;5058276;28;20190;-68
2021/07/17 06:06:19;;;;;;;7.73;3.90;;;;;;;28.97;35.91;101838.78;5058052;28;20449;-68
2021/07/17 06:08:44;;;;;;;7.43;4.10;;;;;;;27.18;39.57;101845.22;5058037;28;20185;-68
2021/07/17 06:11:09;;;;;;;7.73;4.03;;;;;;;28.47;37.36;101840.31;5058401;28;20185;-68
2021/07/17 06:13:35;;;;;;;6.50;4.30;;;;;;;29.04;35.92;101843.78;5057888;28;20173;-67
2021/07/17 06:16:00;;;;;;;6.43;4.60;;;;;;;29.57;35.32;101839.28;5058023;28;20173;-67
2021/07/17 06:18:25;;;;;;;4.87;3.60;;;;;;;30.24;34.45;101835.69;5058719;28;20224;-68
2021/07/17 06:20:51;;;;;;;7.07;4.03;;;;;;;29.87;34.67;101835.06;5057866;28;20169;-68
2021/07/17 06:23:16;;;;;;;7.60;4.10;;;;;;;30.24;34.16;101844.63;5057624;28;20574;-69
2021/07/17 06:25:41;;;;;;;7.03;3.87;;;;;;;30.48;33.49;101844.22;5058007;28;20276;-69
2021/07/17 06:28:07;;;;;;;5.33;4.00;;;;;;;30.06;34.52;101845.66;5057968;28;20173;-69
2021/07/17 06:30:32;;;;;;;9.90;4.50;;;;;;;30.75;33.37;101846.28;5057838;28;20177;-69
2021/07/17 06:32:57;;;;;;;5.40;3.83;;;;;;;30.69;33.39;101849.34;5056750;28;20188;-68
2021/07/17 06:35:23;;;;;;;5.70;4.17;;;;;;;30.89;33.54;101840.97;5057596;28;20447;-69
2021/07/17 06:37:48;;;;;;;10.20;4.30;;;;;;;29.92;34.42;101849.13;5057660;28;20547;-69
2021/07/17 06:40:15;;;;;;;7.40;4.00;;;;;;;29.85;34.75;101848.59;5058221;28;20184;-68
2021/07/17 06:42:42;;;;;;;5.87;3.60;;;;;;;30.75;33.62;101848.97;5057287;28;20181;-69
2021/07/17 06:45:08;;;;;;;4.93;3.47;;;;;;;30.27;34.07;101842.72;5057888;28;20509;-70
2021/07/17 06:47:33;;;;;;;7.70;3.93;;;;;;;29.69;35.20;101847.66;5061691;28;20435;-69
2021/07/17 06:49:59;;;;;;;4.33;3.70;;;;;;;30.51;33.79;101846.75;5061609;28;20867;-68
2021/07/17 06:52:24;;;;;;;6.60;3.70;;;;;;;29.30;36.10;101840.75;5061482;28;20173;-69
2021/07/17 06:54:49;;;;;;;6.90;3.70;;;;;;;30.55;33.63;101840.25;5061856;28;20165;-68
2021/07/17 06:57:15;;;;;;;5.53;4.07;;;;;;;30.34;34.22;101844.97;5061679;28;20184;-69
2021/07/17 06:59:40;;;;;;;7.43;3.90;;;;;;;30.18;34.39;101849.50;5061569;28;20180;-69
2021/07/17 07:02:06;;;;;;;7.03;3.83;;;;;;;31.45;32.72;101845.72;5061699;28;20527;-69
2021/07/17 07:04:31;;;;;;;4.93;3.40;;;;;;;30.90;33.83;101841.81;5061288;28;20180;-69
2021/07/17 07:06:56;;;;;;;8.87;4.53;;;;;;;31.97;31.92;101841.63;5061291;28;20272;-69
2021/07/17 07:09:21;;;;;;;6.67;3.83;;;;;;;30.65;33.69;101851.34;5061787;28;20177;-69
2021/07/17 07:11:47;;;;;;;7.60;4.13;;;;;;;30.39;34.25;101850.97;5061229;28;20190;-69
2021/07/17 07:14:12;;;;;;;7.03;3.70;;;;;;;31.49;32.54;101841.03;5061060;28;20252;-69
2021/07/17 07:16:38;;;;;;;6.57;4.37;;;;;;;31.67;31.91;101842.59;5061463;28;20208;-69
2021/07/17 07:19:03;;;;;;;8.57;3.90;;;;;;;31.65;32.23;101844.53;5061410;28;20587;-68
2021/07/17 07:21:28;;;;;;;6.13;3.80;;;;;;;30.91;33.50;101851.63;5061141;28;20546;-69
2021/07/17 07:23:54;;;;;;;6.60;4.00;;;;;;;31.46;32.25;101850.19;5061047;28;20227;-69
2021/07/17 07:26:19;;;;;;;6.70;4.07;;;;;;;31.75;31.80;101847.53;5061039;28;20205;-68
2021/07/17 07:28:44;;;;;;;8.37;3.60;;;;;;;31.97;31.48;101848.84;5061326;28;20402;-71
2021/07/17 07:31:10;;;;;;;5.00;3.60;;;;;;;32.23;31.08;101837.28;5060984;28;20178;-71
2021/07/17 07:33:35;;;;;;;7.90;4.70;;;;;;;31.94;31.73;101849.06;5060843;28;20222;-69
2021/07/17 07:36:00;;;;;;;3.97;3.20;;;;;;;30.62;33.38;101853.31;5061200;28;20251;-70
2021/07/17 07:38:25;;;;;;;5.73;3.93;;;;;;;31.43;32.21;101849.47;5060823;28;20178;-70
2021/07/17 07:40:51;;;;;;;4.17;3.20;;;;;;;32.07;31.06;101852.72;5060790;28;20169;-70
2021/07/17 07:43:16;;;;;;;5.43;3.70;;;;;;;31.52;31.94;101852.47;5061031;28;20695;-69
2021/07/17 07:45:41;;;;;;;6.57;4.20;;;;;;;31.88;32.16;101856.56;5060404;28;20505;-70
2021/07/17 07:48:07;;;;;;;7.10;4.50;;;;;;;31.78;32.33;101850.00;5060590;28;20528;-70
2021/07/17 07:50:32;;;;;;;10.30;5.57;;;;;;;32.61;30.57;101848.34;5060806;28;20172;-69
2021/07/17 07:52:59;;;;;;;5.87;3.90;;;;;;;31.69;32.16;101854.16;5060176;28;20381;-69
2021/07/17 07:55:24;;;;;;;4.77;3.57;;;;;;;32.96;31.06;101840.59;5060077;28;20231;-70
2021/07/17 07:57:49;;;;;;;5.30;3.47;;;;;;;31.93;32.05;101852.72;5059294;28;20803;-70
2021/07/17 08:00:16;;;;;;;8.13;6.70;;;;;;;31.65;32.40;101847.22;5060314;28;20174;-72
2021/07/17 08:02:41;;;;;;;3.73;3.40;;;;;;;31.06;33.74;101853.44;5060162;28;20177;-68
2021/07/17 08:05:08;;;;;;;5.67;3.80;;;;;;;31.86;32.71;101849.53;5060817;28;20463;-70
2021/07/17 08:07:33;;;;;;;4.57;3.47;;;;;;;32.06;31.98;101845.56;5060083;28;20445;-68
2021/07/17 08:09:58;;;;;;;8.30;3.53;;;;;;;32.38;31.43;101848.91;5059219;28;20435;-69
2021/07/17 08:12:24;;;;;;;6.30;3.70;;;;;;;32.78;30.54;101837.31;5060296;28;20307;-68
2021/07/17 08:14:49;;;;;;;7.00;3.97;;;;;;;34.05;28.95;101842.06;5059986;28;20181;-69
2021/07/17 08:17:14;;;;;;;5.87;3.83;;;;;;;33.06;29.85;101843.56;5059693;28;20169;-70
2021/07/17 08:19:40;;;;;;;6.10;3.47;;;;;;;33.24;29.75;101836.00;5059853;28;20170;-69
2021/07/17 08:22:05;;;;;;;5.70;3.73;;;;;;;33.70;29.10;101838.19;5059520;28;20542;-69
2021/07/17 08:24:30;;;;;;;6.80;3.40;;;;;;;32.52;31.23;101839.91;5058457;28;20225;-68
2021/07/17 08:26:56;;;;;;;11.57;3.73;;;;;;;33.93;29.17;101838.41;5059725;28;20260;-69
2021/07/17 08:29:21;;;;;;;4.53;3.93;;;;;;;34.03;28.37;101835.91;5059531;28;20355;-69
2021/07/17 08:31:46;;;;;;;4.50;3.33;;;;;;;32.66;30.25;101841.66;5059476;28;20776;-69
2021/07/17 08:34:11;;;;;;;4.63;3.47;;;;;;;34.09;28.69;101838.16;5059828;28;20201;-69
2021/07/17 08:36:37;;;;;;;4.90;3.50;;;;;;;33.30;29.46;101837.44;5059372;28;20169;-69
2021/07/17 08:39:03;;;;;;;4.30;3.10;;;;;;;33.36;30.01;101828.91;5059399;28;20543;-69
2021/07/17 08:41:32;;;;;;;5.73;3.00;;;;;;;33.06;30.51;101839.00;5059816;28;20268;-69
2021/07/17 08:43:57;;;;;;;4.53;3.10;;;;;;;33.12;30.04;101840.41;5058449;28;20173;-69
2021/07/17 08:46:23;;;;;;;6.90;5.73;;;;;;;33.87;29.01;101838.88;5059484;28;20463;-69
2021/07/17 08:48:50;;;;;;;5.13;3.37;;;;;;;33.47;29.49;101826.31;5059740;28;20235;-69
2021/07/17 08:51:16;;;;;;;8.97;3.47;;;;;;;34.52;28.20;101829.59;5058527;28;20191;-69
2021/07/17 08:53:41;;;;;;;6.07;3.20;;;;;;;34.53;27.68;101830.44;5059211;28;20415;-70
2021/07/17 08:56:08;;;;;;;3.80;3.10;;;;;;;33.53;29.47;101838.53;5058741;28;20161;-69
2021/07/17 08:58:33;;;;;;;7.67;3.50;;;;;;;33.16;29.80;101839.22;5059107;28;20196;-69
2021/07/17 09:01:00;;;;;;;4.50;3.37;;;;;;;33.44;29.05;101842.75;5059194;28;20432;-70
2021/07/17 09:03:25;;;;;;;3.80;3.40;;;;;;;34.45;27.50;101844.59;5059264;28;20180;-70
2021/07/17 09:05:51;;;;;;;3.80;3.10;;;;;;;33.97;28.87;101844.47;5058880;28;20459;-70
2021/07/17 09:08:17;;;;;;;4.57;3.43;;;;;;;33.31;29.64;101841.88;5058876;28;20256;-70
2021/07/17 09:10:43;;;;;;;5.60;3.50;;;;;;;33.89;28.87;101848.59;5059205;28;20216;-69
2021/07/17 09:13:12;;;;;;;5.33;3.60;;;;;;;34.40;28.80;101833.22;5058668;28;20420;-70
2021/07/17 09:15:40;;;;;;;6.90;3.80;;;;;;;33.99;29.27;101842.50;5058912;28;20428;-69
2021/07/17 09:18:06;;;;;;;5.20;3.40;;;;;;;33.75;30.28;101835.19;5059225;28;20408;-70
2021/07/17 09:20:31;;;;;;;5.13;3.30;;;;;;;34.29;28.48;101831.28;5058821;28;20481;-69
2021/07/17 09:22:58;;;;;;;3.73;3.27;;;;;;;33.45;29.33;101839.09;5058812;28;20418;-69
2021/07/17 09:25:23;;;;;;;3.43;3.13;;;;;;;33.78;28.87;101834.97;5058445;28;20294;-69
2021/07/17 09:27:49;;;;;;;5.73;3.20;;;;;;;33.78;28.97;101834.97;5058511;28;20424;-69
2021/07/17 09:30:26;;;;;;;4.37;3.30;;;;;;;33.33;29.49;101831.84;5059420;28;20562;-69
2021/07/17 09:33:02;;;;;;;7.60;3.53;;;;;;;34.60;28.13;101836.25;5058592;28;20165;-70
2021/07/17 09:35:27;;;;;;;4.37;3.20;;;;;;;34.69;28.39;101836.41;5058472;28;20691;-68
2021/07/17 09:37:55;;;;;;;6.57;4.77;;;;;;;34.97;27.88;101838.91;5058272;28;20432;-68
2021/07/17 09:40:20;;;;;;;4.70;3.30;;;;;;;34.65;28.12;101828.66;5058467;28;20201;-68
2021/07/17 09:42:45;;;;;;;6.50;3.67;;;;;;;32.65;30.28;101834.56;5058449;28;20463;-70
2021/07/17 09:45:11;;;;;;;7.30;3.37;;;;;;;33.85;28.78;101827.28;5058207;28;20589;-70
2021/07/17 09:47:36;;;;;;;6.07;3.27;;;;;;;34.47;28.00;101825.50;5058230;28;20215;-69
2021/07/17 09:50:15;;;;;;;5.03;2.80;;;;;;;33.31;28.95;101836.47;5058563;28;20177;-69
2021/07/17 09:52:41;;;;;;;6.60;3.40;;;;;;;34.12;27.84;101828.97;5058270;28;20260;-68
2021/07/17 09:55:11;;;;;;;4.73;3.20;;;;;;;33.37;29.15;101836.06;5057871;28;20428;-69
2021/07/17 09:57:37;;;;;;;4.60;3.30;;;;;;;33.41;28.45;101826.75;5058067;28;20419;-69
2021/07/17 10:00:10;;;;;;;4.73;3.40;;;;;;;34.42;27.90;101825.84;5057981;28;20412;-69
2021/07/17 10:02:36;;;;;;;6.00;3.60;;;;;;;33.87;28.64;101828.06;5057711;28;20170;-68
2021/07/17 10:05:05;;;;;;;4.57;2.90;;;;;;;33.58;29.13;101821.03;5057634;28;20948;-68
2021/07/17 10:07:30;;;;;;;2.90;2.60;;;;;;;34.07;27.81;101830.16;5049343;28;20618;-68
2021/07/17 10:09:56;;;;;;;4.70;3.83;;;;;;;34.62;27.67;101832.47;5042486;28;20517;-67
2021/07/17 10:12:40;;;;;;;8.63;3.30;;;;;;;34.32;27.40;101831.09;5057804;28;20177;-68
2021/07/17 10:15:10;;;;;;;5.60;4.10;;;;;;;34.53;27.81;101823.22;5045697;28;20193;-69
2021/07/17 10:17:38;;;;;;;6.17;3.40;;;;;;;34.63;27.69;101830.59;5036912;28;20420;-67
2021/07/17 10:20:05;;;;;;;5.00;3.30;;;;;;;33.52;29.18;101829.56;5037186;28;20423;-68
2021/07/17 10:22:31;;;;;;;5.00;3.50;;;;;;;33.64;29.44;101837.75;5040393;28;20412;-68
2021/07/17 10:24:56;;;;;;;5.90;3.30;;;;;;;34.11;28.69;101824.53;5057255;28;20476;-68
2021/07/17 10:27:22;;;;;;;4.30;3.13;;;;;;;33.58;28.69;101823.72;5057543;28;20169;-68
2021/07/17 10:29:49;;;;;;;5.80;3.63;;;;;;;34.50;27.67;101823.41;5057192;28;20248;-68
2021/07/17 10:32:15;;;;;;;4.20;3.77;;;;;;;35.45;27.11;101827.94;5057267;28;20219;-68
2021/07/17 10:34:40;;;;;;;4.90;3.30;;;;;;;35.30;27.22;101826.41;5057293;28;20825;-67
2021/07/17 10:37:19;;;;;;;5.13;3.90;;;;;;;35.82;26.55;101824.13;5057800;28;20173;-67
2021/07/17 10:40:08;;;;;;;4.60;3.10;;;;;;;34.11;28.83;101828.06;5053154;28;20174;-68
2021/07/17 10:42:34;;;;;;;5.50;3.10;;;;;;;34.21;28.16;101821.03;5054298;28;20466;-69
2021/07/17 10:44:59;;;;;;;5.30;3.17;;;;;;;32.79;30.39;101825.56;5056620;28;20463;-68
2021/07/17 10:47:35;;;;;;;3.27;2.87;;;;;;;33.05;30.01;101823.75;5056522;28;20539;-68
2021/07/17 10:50:01;;;;;;;3.40;3.00;;;;;;;33.47;29.69;101820.91;5057253;28;20231;-69
2021/07/17 10:52:39;;;;;;;4.63;2.90;;;;;;;34.20;29.28;101824.69;5057410;28;20699;-68
2021/07/17 10:55:24;;;;;;;4.40;3.23;;;;;;;32.38;30.66;101821.03;5056583;28;20173;-69
2021/07/17 10:57:49;;;;;;;7.87;3.00;;;;;;;31.85;31.69;101823.53;5057379;28;20396;-69
2021/07/17 11:00:47;;;;;;;4.53;3.17;;;;;;;32.97;30.68;101817.16;5057348;28;20661;-69
2021/07/17 11:03:24;;;;;;;7.03;3.93;;;;;;;32.81;30.35;101812.78;5057024;28;20271;-68
2021/07/17 11:05:50;;;;;;;8.77;3.73;;;;;;;33.91;29.08;101822.28;5057039;28;20459;-67
2021/07/17 11:08:31;;;;;;;5.03;3.60;;;;;;;33.82;28.83;101804.03;5056307;28;20427;-68
2021/07/17 11:10:57;;;;;;;6.30;3.77;;;;;;;34.31;28.89;101812.25;5057313;28;20201;-67
2021/07/17 11:13:42;;;;;;;4.87;3.30;;;;;;;33.69;29.70;101808.56;5056938;28;20408;-67
2021/07/17 11:16:08;;;;;;;6.00;3.30;;;;;;;33.31;29.85;101804.03;5056853;28;20181;-68